Redmond, Utah
Current Conditions -  °F | °C
As of 7:35 AM on Friday 24 Oct 2014 (Local Time) from KDTA Reporting Station
Clear Clear  
Wind Chill: 43°   Ceiling: Unl
Heat Index: 48°   Visibility: 10mi
Dew Point: 28°   Wind: 10mph
Humidity: 47%   Direction: 210°SSW
Pressure: 30.18"   Gusts: NA
Location:  39.01°N, 111.86°W
Report Text: KDTA 241335Z AUTO 21009KT 10SM CLR 09/M02 A3018 RMK AO1 T00871020
Loading
Personal Weather Stations






























Interactive Weather Map
Tropical Storm Tracking
New forecast layout! Learn more

10-Day Weather Forecast

Advertisements
Track Severe Weather on mobile